Huvudsida
METAR-TAF:

METAR-TAF

Flygplatser :

Førde flygplats. Bringeland

Førde, Norge

latitud: 61-27N, longitud: 005-52E, höjd: 150 m

Aktuellt väderrapport

Denna rapport gjordes för 12 timmar och 28 minuter sedan, klockan 14:50 UTC
Vind 7 kt från syd, varierande mellan syd/sydost och sydväst
Temperatur 16°C
Fuktighet 82%
Tryck 993 hPa
Sikt 10 km eller mer
Få moln
Spridda moln på en höjd av 1000 ft
Brutna moln på en höjd av 3500 ft
lätta regnskurar

METAR: ENBL 171450Z 19007KT 150V230 9999 -SHRA FEW/// SCT010 BKN035 16/13 Q0993

Tid: 05:18 (03:18 UTC)


TAF: saknas

Aktuella väderrapporter och prognoser från 4000 flygplatser (METAR- och TAF-rapporter).

De tillgängliga stationerna syns som gula och röda prickar på kartan.

För musen över prickarna för att se namnen på stationerna.

Klicka sedan för att få väderrapporter och prognoser.

För att ändra kartan: Klicka på de gröna knapparna med ett svart kors på för att zooma in; den gröna knappen med ett streck på för att zooma ut; eller på de gröna pilarna för angränsande kartor.


METAR-TAF: